Time;durP1;ratioP1;P1;durP2;ratioP2;P2;SDS_P1;SDS_P2;PMS_P1;PMS_P2;Temp;Humidity;BMP_temperature;BMP_pressure;BME280_temperature;BME280_humidity;BME280_pressure;Samples;Min_cycle;Max_cycle;Signal;HPM_P1;HPM_P2
2021/03/22 00:00:21;;;;;;;24.77;9.75;;;6.10;99.90;;;;;;5076432;28;20296;-81
2021/03/22 00:02:49;;;;;;;29.02;10.98;;;5.90;99.90;;;;;;5076424;28;20198;-82
2021/03/22 00:05:15;;;;;;;22.08;9.82;;;6.00;99.90;;;;;;5075719;28;20229;-82
2021/03/22 00:07:42;;;;;;;19.55;8.63;;;5.70;99.90;;;;;;5076853;28;20222;-82
2021/03/22 00:10:09;;;;;;;28.30;9.48;;;6.00;99.90;;;;;;5075339;28;20320;-84
2021/03/22 00:12:35;;;;;;;20.40;9.23;;;6.10;99.90;;;;;;5078394;28;20272;-83
2021/03/22 00:15:03;;;;;;;29.48;9.52;;;6.00;99.90;;;;;;5078957;28;20604;-83
2021/03/22 00:17:29;;;;;;;28.13;11.05;;;6.20;99.90;;;;;;5077469;28;20237;-81
2021/03/22 00:19:57;;;;;;;25.08;9.82;;;6.20;99.90;;;;;;5075912;28;20202;-82
2021/03/22 00:22:23;;;;;;;24.98;9.48;;;6.30;99.90;;;;;;5076612;28;20251;-82
2021/03/22 00:24:50;;;;;;;24.38;9.75;;;6.30;99.90;;;;;;5075256;28;20214;-81
2021/03/22 00:27:16;;;;;;;29.50;10.68;;;6.20;99.90;;;;;;5075964;28;20296;-82
2021/03/22 00:29:43;;;;;;;31.13;9.35;;;6.40;99.90;;;;;;5075220;28;20273;-82
2021/03/22 00:32:10;;;;;;;28.38;9.27;;;6.40;99.90;;;;;;5076706;28;20293;-82
2021/03/22 00:34:36;;;;;;;21.15;9.15;;;6.00;99.90;;;;;;5076086;28;20243;-82
2021/03/22 00:37:04;;;;;;;24.42;8.77;;;6.20;99.90;;;;;;5076496;28;20206;-79
2021/03/22 00:39:30;;;;;;;28.23;8.55;;;6.50;99.90;;;;;;5077190;28;20787;-83
2021/03/22 00:41:56;;;;;;;23.73;9.15;;;6.60;99.90;;;;;;5075324;28;20220;-81
2021/03/22 00:44:23;;;;;;;21.20;8.77;;;6.30;99.90;;;;;;5079978;28;20202;-83
2021/03/22 00:46:49;;;;;;;26.45;8.00;;;6.50;99.90;;;;;;5078257;28;20221;-81
2021/03/22 00:49:16;;;;;;;25.05;9.02;;;6.50;99.90;;;;;;5075495;28;20226;-82
2021/03/22 00:51:43;;;;;;;19.95;7.15;;;6.40;99.90;;;;;;5074794;28;20652;-80
2021/03/22 00:54:10;;;;;;;30.55;9.75;;;6.40;99.90;;;;;;5074735;28;20317;-81
2021/03/22 00:56:36;;;;;;;19.30;8.43;;;6.50;99.90;;;;;;5074795;28;20281;-81
2021/03/22 00:59:03;;;;;;;23.20;8.07;;;6.50;99.90;;;;;;5074192;28;20275;-82
2021/03/22 01:01:29;;;;;;;25.38;7.45;;;6.50;99.90;;;;;;5074094;28;20237;-82
2021/03/22 01:03:56;;;;;;;15.90;7.55;;;6.60;99.90;;;;;;5076184;28;20233;-81
2021/03/22 01:06:22;;;;;;;28.15;8.35;;;6.60;99.90;;;;;;5077204;28;20288;-81
2021/03/22 01:08:48;;;;;;;24.55;8.40;;;6.70;99.90;;;;;;5078550;28;20257;-80
2021/03/22 01:11:18;;;;;;;26.67;9.73;;;6.40;99.90;;;;;;5078901;28;20206;-81
2021/03/22 01:13:46;;;;;;;27.23;8.75;;;6.30;99.90;;;;;;5078111;28;20290;-81
2021/03/22 01:16:14;;;;;;;23.77;7.18;;;6.40;99.90;;;;;;5085034;28;20197;-81
2021/03/22 01:18:43;;;;;;;23.92;7.63;;;6.30;99.90;;;;;;5084868;28;20322;-81
2021/03/22 01:21:14;;;;;;;22.17;9.20;;;6.70;99.90;;;;;;5078805;28;20289;-80
2021/03/22 01:23:41;;;;;;;20.08;7.75;;;6.70;99.90;;;;;;5078258;28;20213;-81
2021/03/22 01:26:08;;;;;;;19.35;7.75;;;6.50;99.90;;;;;;5077994;28;20765;-81
2021/03/22 01:28:38;;;;;;;25.75;8.13;;;6.50;99.90;;;;;;5075794;28;20362;-81
2021/03/22 01:31:05;;;;;;;22.60;7.10;;;6.40;99.90;;;;;;5082935;28;20222;-79
2021/03/22 01:33:35;;;;;;;25.17;8.35;;;6.30;99.90;;;;;;5091216;28;20285;-81
2021/03/22 01:36:05;;;;;;;31.45;8.27;;;6.20;99.90;;;;;;5082136;28;20206;-82
2021/03/22 01:38:32;;;;;;;16.92;7.38;;;6.20;99.90;;;;;;5091576;28;20286;-82
2021/03/22 01:41:17;;;;;;;21.73;7.85;;;6.40;99.90;;;;;;5088513;28;20206;-80
2021/03/22 01:44:11;;;;;;;32.05;8.10;;;6.40;99.90;;;;;;5081564;28;20186;-82
2021/03/22 01:46:38;;;;;;;18.58;6.30;;;6.10;99.90;;;;;;5071204;28;20269;-82
2021/03/22 01:49:06;;;;;;;15.70;6.15;;;6.30;99.90;;;;;;5076086;28;20236;-83
2021/03/22 01:51:33;;;;;;;19.10;6.90;;;6.60;99.90;;;;;;5076636;28;20202;-82
2021/03/22 01:54:00;;;;;;;19.58;7.60;;;6.60;99.90;;;;;;5076886;28;20233;-82
2021/03/22 01:56:32;;;;;;;24.90;7.30;;;6.50;99.90;;;;;;5080051;28;20213;-82
2021/03/22 01:59:00;;;;;;;25.95;7.82;;;6.40;99.90;;;;;;5077146;28;20707;-82
2021/03/22 02:01:29;;;;;;;19.55;6.72;;;6.60;99.90;;;;;;5075411;28;20216;-83
2021/03/22 02:03:56;;;;;;;16.08;6.47;;;6.20;99.90;;;;;;5078218;28;20287;-82
2021/03/22 02:06:24;;;;;;;17.75;6.68;;;6.20;99.90;;;;;;5075532;28;20197;-83
2021/03/22 02:08:54;;;;;;;22.08;7.10;;;6.40;99.90;;;;;;5075408;28;20224;-81
2021/03/22 02:11:22;;;;;;;22.63;7.70;;;6.40;99.90;;;;;;5075258;28;20218;-80
2021/03/22 02:13:50;;;;;;;25.75;7.90;;;6.20;99.90;;;;;;5076577;28;20317;-81
2021/03/22 02:16:22;;;;;;;25.83;6.80;;;6.10;99.90;;;;;;5076507;28;20197;-82
2021/03/22 02:19:01;;;;;;;20.67;7.45;;;6.10;99.90;;;;;;5074640;28;20348;-82
2021/03/22 02:22:11;;;;;;;19.45;6.72;;;6.30;99.90;;;;;;5075129;28;20595;-82
2021/03/22 02:25:07;;;;;;;28.23;7.25;;;5.90;99.90;;;;;;5064477;28;20202;-83
2021/03/22 02:27:58;;;;;;;21.40;6.00;;;6.40;99.90;;;;;;5055162;28;20213;-82
2021/03/22 02:31:07;;;;;;;22.90;5.82;;;6.20;99.90;;;;;;5070853;28;20633;-82
2021/03/22 02:34:07;;;;;;;25.25;7.05;;;6.20;99.90;;;;;;5081010;28;20225;-82
2021/03/22 02:36:41;;;;;;;26.67;7.82;;;6.10;99.90;;;;;;5081589;28;20269;-82
2021/03/22 02:39:08;;;;;;;32.25;6.50;;;6.00;99.90;;;;;;5081056;28;20320;-82
2021/03/22 02:41:40;;;;;;;22.63;6.57;;;6.00;99.90;;;;;;5079863;28;20209;-81
2021/03/22 02:44:10;;;;;;;22.88;7.70;;;6.20;99.90;;;;;;5077799;28;20203;-81
2021/03/22 02:46:38;;;;;;;13.30;6.00;;;6.00;99.90;;;;;;5078760;28;20315;-81
2021/03/22 02:49:10;;;;;;;17.92;7.20;;;6.00;99.90;;;;;;5078077;28;20320;-82
2021/03/22 02:51:49;;;;;;;23.05;6.65;;;6.00;99.90;;;;;;5078921;28;20254;-81
2021/03/22 02:54:24;;;;;;;18.05;5.60;;;6.10;99.90;;;;;;5078245;28;20225;-83
2021/03/22 02:56:55;;;;;;;26.95;6.95;;;6.10;99.90;;;;;;5079477;28;20213;-81
2021/03/22 02:59:27;;;;;;;22.67;6.00;;;6.20;99.90;;;;;;5079626;28;20257;-81
2021/03/22 03:01:59;;;;;;;23.05;6.55;;;6.00;99.90;;;;;;5081118;28;20293;-81
2021/03/22 03:04:27;;;;;;;18.15;6.07;;;5.90;99.90;;;;;;5079689;28;20232;-81
2021/03/22 03:06:56;;;;;;;21.17;5.80;;;6.00;99.90;;;;;;5079669;28;20244;-82
2021/03/22 03:09:25;;;;;;;19.48;7.15;;;6.00;99.90;;;;;;5078916;28;20225;-81
2021/03/22 03:11:52;;;;;;;26.60;6.75;;;6.00;99.90;;;;;;5089883;28;20289;-81
2021/03/22 03:14:18;;;;;;;23.20;5.57;;;6.10;99.90;;;;;;5086347;28;20222;-81
2021/03/22 03:16:45;;;;;;;15.60;5.53;;;6.10;99.90;;;;;;5077847;28;20206;-80
2021/03/22 03:19:11;;;;;;;15.10;6.07;;;6.10;99.90;;;;;;5076267;28;20722;-82
2021/03/22 03:21:38;;;;;;;26.40;6.93;;;6.20;99.90;;;;;;5081872;28;20202;-82
2021/03/22 03:24:07;;;;;;;22.65;5.50;;;6.40;99.90;;;;;;5092824;28;20202;-79
2021/03/22 03:26:33;;;;;;;29.02;5.55;;;6.20;99.90;;;;;;5088318;28;20201;-81
2021/03/22 03:29:00;;;;;;;18.80;5.25;;;5.80;99.90;;;;;;5079597;28;20241;-82
2021/03/22 03:31:26;;;;;;;13.93;4.47;;;5.90;99.90;;;;;;5079673;28;20641;-81
2021/03/22 03:33:52;;;;;;;19.77;5.72;;;6.30;99.90;;;;;;5078533;28;20225;-81
2021/03/22 03:36:19;;;;;;;25.30;5.75;;;6.00;99.90;;;;;;5078356;28;20213;-80
2021/03/22 03:38:46;;;;;;;20.48;5.18;;;5.80;99.90;;;;;;5083862;28;20249;-81
2021/03/22 03:41:13;;;;;;;27.23;6.72;;;6.20;99.90;;;;;;5077165;28;20362;-82
2021/03/22 03:43:39;;;;;;;21.38;5.93;;;5.90;99.90;;;;;;5076591;28;20508;-82
2021/03/22 03:46:05;;;;;;;23.17;6.18;;;5.90;99.90;;;;;;5076719;28;20288;-81
2021/03/22 03:48:32;;;;;;;19.20;5.25;;;5.70;99.90;;;;;;5076633;28;20229;-81
2021/03/22 03:51:00;;;;;;;20.10;6.05;;;5.80;99.90;;;;;;5077205;28;20202;-82
2021/03/22 03:53:27;;;;;;;20.70;5.00;;;5.80;99.90;;;;;;5076531;28;20336;-81
2021/03/22 03:55:55;;;;;;;21.48;6.03;;;5.80;99.90;;;;;;5077493;28;20209;-82
2021/03/22 03:58:21;;;;;;;20.67;5.80;;;6.00;99.90;;;;;;5077591;28;20225;-79
2021/03/22 04:00:49;;;;;;;20.55;6.28;;;5.80;99.90;;;;;;5077054;28;20285;-81
2021/03/22 04:03:27;;;;;;;25.20;5.80;;;6.10;99.90;;;;;;5076810;28;20640;-81
2021/03/22 04:05:56;;;;;;;24.58;5.50;;;5.90;99.90;;;;;;5076835;28;20244;-81
2021/03/22 04:08:23;;;;;;;17.13;5.15;;;6.00;99.90;;;;;;5076370;28;20221;-81
2021/03/22 04:10:50;;;;;;;25.83;5.85;;;6.30;99.90;;;;;;5077102;28;20638;-83
2021/03/22 04:13:18;;;;;;;20.13;5.72;;;6.20;99.90;;;;;;5077198;28;20234;-83
2021/03/22 04:15:44;;;;;;;18.25;5.30;;;5.90;99.90;;;;;;5078874;28;20241;-84
2021/03/22 04:18:11;;;;;;;9.68;4.15;;;5.80;99.90;;;;;;5079056;28;20575;-82
2021/03/22 04:20:38;;;;;;;17.20;4.80;;;6.00;99.90;;;;;;5084799;28;20868;-83
2021/03/22 04:23:04;;;;;;;11.20;3.88;;;5.80;99.90;;;;;;5079055;28;20255;-82
2021/03/22 04:25:31;;;;;;;20.05;5.10;;;5.90;99.90;;;;;;5078113;28;20265;-82
2021/03/22 04:27:57;;;;;;;16.80;5.90;;;5.70;99.90;;;;;;5079597;28;20238;-81
2021/03/22 04:30:25;;;;;;;16.17;3.17;;;5.90;99.90;;;;;;5093853;28;20216;-80
2021/03/22 04:32:52;;;;;;;19.98;4.95;;;5.80;99.90;;;;;;5090230;28;20225;-83
2021/03/22 04:35:19;;;;;;;19.75;5.05;;;5.60;99.90;;;;;;5079843;28;20201;-83
2021/03/22 04:37:45;;;;;;;18.45;4.80;;;5.50;99.90;;;;;;5080591;28;20256;-82
2021/03/22 04:40:14;;;;;;;19.38;4.47;;;5.70;99.90;;;;;;5078674;28;20258;-82
2021/03/22 04:42:41;;;;;;;17.48;5.00;;;6.00;99.90;;;;;;5081020;28;20237;-83
2021/03/22 04:45:08;;;;;;;19.35;5.25;;;5.90;99.90;;;;;;5085112;28;20226;-80
2021/03/22 04:47:36;;;;;;;14.10;5.20;;;5.80;99.90;;;;;;5088008;28;20206;-80
2021/03/22 04:50:03;;;;;;;23.27;4.63;;;5.70;99.90;;;;;;5081673;28;20193;-82
2021/03/22 04:52:29;;;;;;;17.75;4.93;;;5.80;99.90;;;;;;5087165;28;20198;-79
2021/03/22 04:54:55;;;;;;;15.07;4.57;;;5.70;99.90;;;;;;5093175;28;20217;-82
2021/03/22 04:57:25;;;;;;;16.40;4.90;;;5.90;99.90;;;;;;5086590;28;20225;-82
2021/03/22 04:59:52;;;;;;;19.15;5.03;;;5.90;99.90;;;;;;5080022;28;20265;-83
2021/03/22 05:02:18;;;;;;;16.17;4.20;;;5.90;99.90;;;;;;5080076;28;20213;-82
2021/03/22 05:04:46;;;;;;;18.27;3.85;;;5.70;99.90;;;;;;5078488;28;20196;-82
2021/03/22 05:07:18;;;;;;;19.17;5.05;;;5.80;99.90;;;;;;5079453;28;20194;-81
2021/03/22 05:09:46;;;;;;;19.50;4.60;;;5.60;99.90;;;;;;5077361;28;20213;-83
2021/03/22 05:12:14;;;;;;;19.13;4.68;;;5.80;99.90;;;;;;5078595;28;20225;-83
2021/03/22 05:14:40;;;;;;;17.83;4.78;;;5.90;99.90;;;;;;5079336;28;20218;-82
2021/03/22 05:17:08;;;;;;;24.30;4.55;;;6.00;99.90;;;;;;5076352;28;20213;-81
2021/03/22 05:19:34;;;;;;;17.02;4.80;;;5.90;99.90;;;;;;5076150;28;20224;-82
2021/03/22 05:22:02;;;;;;;28.30;4.97;;;6.00;99.90;;;;;;5076684;28;20695;-82
2021/03/22 05:24:29;;;;;;;23.77;4.68;;;6.10;99.90;;;;;;5079198;28;20227;-82
2021/03/22 05:26:55;;;;;;;8.27;3.25;;;6.10;99.90;;;;;;5079880;28;20213;-82
2021/03/22 05:29:24;;;;;;;17.08;3.90;;;6.10;99.90;;;;;;5080023;28;20233;-82
2021/03/22 05:31:50;;;;;;;16.52;4.50;;;6.00;99.90;;;;;;5076696;28;20588;-83
2021/03/22 05:34:17;;;;;;;18.35;4.03;;;5.80;99.90;;;;;;5075498;28;20229;-82
2021/03/22 05:36:43;;;;;;;9.13;2.65;;;5.90;99.90;;;;;;5075713;28;20226;-82
2021/03/22 05:39:11;;;;;;;9.57;3.58;;;6.10;99.90;;;;;;5075651;28;20649;-82
2021/03/22 05:41:48;;;;;;;12.77;3.80;;;5.80;99.90;;;;;;5075395;28;20208;-83
2021/03/22 05:44:32;;;;;;;19.88;4.40;;;5.70;99.90;;;;;;5075367;28;20225;-83
2021/03/22 05:47:09;;;;;;;12.30;2.35;;;5.80;99.90;;;;;;5074762;28;20297;-82
2021/03/22 05:49:52;;;;;;;14.30;3.50;;;5.80;99.90;;;;;;5074136;28;20310;-82
2021/03/22 05:52:45;;;;;;;9.27;3.50;;;6.00;99.90;;;;;;5074774;28;20399;-82
2021/03/22 05:55:29;;;;;;;9.13;3.13;;;5.80;99.90;;;;;;5074292;28;20237;-82
2021/03/22 05:58:16;;;;;;;16.98;4.57;;;6.00;99.90;;;;;;5073988;28;20344;-82
2021/03/22 06:00:51;;;;;;;15.95;2.90;;;5.90;99.90;;;;;;5074657;28;20208;-82
2021/03/22 06:03:23;;;;;;;10.10;3.63;;;5.90;99.90;;;;;;5074477;28;20205;-82
2021/03/22 06:06:00;;;;;;;12.60;4.38;;;5.50;99.90;;;;;;5076144;28;20267;-83
2021/03/22 06:08:36;;;;;;;15.63;3.80;;;5.80;99.90;;;;;;5082732;28;20395;-83
2021/03/22 06:11:12;;;;;;;11.30;3.60;;;5.70;99.90;;;;;;5081154;28;20272;-83
2021/03/22 06:13:42;;;;;;;11.32;3.60;;;5.70;99.90;;;;;;5081203;28;20739;-83
2021/03/22 06:16:19;;;;;;;15.75;4.78;;;5.80;99.90;;;;;;5081577;28;20213;-83
2021/03/22 06:18:55;;;;;;;16.80;6.65;;;5.50;99.90;;;;;;5079982;28;20227;-84
2021/03/22 06:21:21;;;;;;;15.88;4.88;;;5.90;99.90;;;;;;5080655;28;20205;-83
2021/03/22 06:23:49;;;;;;;20.15;5.15;;;5.70;99.90;;;;;;5080226;28;20707;-82
2021/03/22 06:26:33;;;;;;;18.10;5.45;;;6.00;99.90;;;;;;5080328;28;20263;-83
2021/03/22 06:29:04;;;;;;;15.75;4.68;;;6.00;99.90;;;;;;5080059;28;20237;-83
2021/03/22 06:31:30;;;;;;;21.42;4.95;;;5.90;99.90;;;;;;5080711;28;20588;-82
2021/03/22 06:34:04;;;;;;;21.02;5.75;;;5.70;99.90;;;;;;5078730;28;20316;-82
2021/03/22 06:36:31;;;;;;;25.08;5.38;;;5.90;99.90;;;;;;5078642;28;20201;-82
2021/03/22 06:39:00;;;;;;;20.55;5.93;;;6.00;99.90;;;;;;5077862;28;20249;-82
2021/03/22 06:41:40;;;;;;;17.40;4.80;;;5.80;99.90;;;;;;5079029;28;20248;-82
2021/03/22 06:44:08;;;;;;;27.80;5.13;;;5.90;99.90;;;;;;5078627;28;20209;-81
2021/03/22 06:46:52;;;;;;;18.65;5.20;;;6.00;99.90;;;;;;5079151;28;20202;-81
2021/03/22 06:49:24;;;;;;;14.32;4.50;;;6.10;99.90;;;;;;5074583;28;20229;-82
2021/03/22 06:51:59;;;;;;;11.05;4.00;;;5.90;99.90;;;;;;5083478;28;20269;-81
2021/03/22 06:54:32;;;;;;;17.48;4.03;;;5.70;99.90;;;;;;5075186;28;20234;-82
2021/03/22 06:57:07;;;;;;;27.13;5.35;;;5.90;99.90;;;;;;5076217;28;20233;-80
2021/03/22 06:59:33;;;;;;;18.42;4.05;;;5.90;99.90;;;;;;5085350;28;20249;-83
2021/03/22 07:02:19;;;;;;;14.32;3.72;;;6.00;99.90;;;;;;5089275;28;20216;-81
2021/03/22 07:04:45;;;;;;;14.85;4.00;;;5.80;99.90;;;;;;5084555;28;20210;-79
2021/03/22 07:07:16;;;;;;;14.90;4.40;;;5.70;99.90;;;;;;5091685;28;20217;-80
2021/03/22 07:09:49;;;;;;;19.10;4.95;;;5.80;99.90;;;;;;5088741;28;20249;-79
2021/03/22 07:12:35;;;;;;;13.07;4.35;;;5.80;99.90;;;;;;5092620;28;20217;-83
2021/03/22 07:15:23;;;;;;;18.45;4.18;;;5.70;99.90;;;;;;5081553;28;20786;-83
2021/03/22 07:18:12;;;;;;;18.38;4.70;;;5.70;99.90;;;;;;5081140;28;20228;-84
2021/03/22 07:20:39;;;;;;;27.08;4.95;;;5.80;99.90;;;;;;5079966;28;20214;-83
2021/03/22 07:23:28;;;;;;;20.88;5.03;;;6.10;99.90;;;;;;5080426;28;20204;-83
2021/03/22 07:25:56;;;;;;;22.02;5.00;;;6.00;99.90;;;;;;5080065;28;20213;-82
2021/03/22 07:28:31;;;;;;;19.30;5.35;;;6.00;99.90;;;;;;5079198;28;20253;-82
2021/03/22 07:31:04;;;;;;;15.40;5.07;;;5.90;99.90;;;;;;5084300;28;20212;-83
2021/03/22 07:33:41;;;;;;;21.17;4.45;;;6.10;99.90;;;;;;5080129;28;20308;-82
2021/03/22 07:36:22;;;;;;;10.88;4.65;;;6.00;99.90;;;;;;5079637;28;20212;-82
2021/03/22 07:39:14;;;;;;;19.45;5.07;;;6.00;99.90;;;;;;5081509;28;20222;-81
2021/03/22 07:41:55;;;;;;;14.32;3.92;;;6.00;99.90;;;;;;5084180;28;20228;-81
2021/03/22 07:44:53;;;;;;;19.23;4.13;;;6.20;99.90;;;;;;5095489;28;20212;-79
2021/03/22 07:47:48;;;;;;;13.85;3.95;;;6.10;99.90;;;;;;5062803;28;20282;-82
2021/03/22 07:50:23;;;;;;;23.48;4.07;;;6.20;99.90;;;;;;5072607;28;20198;-82
2021/03/22 07:52:54;;;;;;;22.67;5.00;;;6.00;99.90;;;;;;5081901;28;20209;-83
2021/03/22 07:55:46;;;;;;;17.23;3.22;;;5.80;99.90;;;;;;5089066;28;20226;-83
2021/03/22 07:58:24;;;;;;;20.17;4.35;;;5.90;99.90;;;;;;5083525;28;20869;-83
2021/03/22 08:01:02;;;;;;;24.30;3.72;;;5.70;99.90;;;;;;5089470;28;20220;-83
2021/03/22 08:03:34;;;;;;;11.20;3.15;;;5.90;99.90;;;;;;5092577;28;20197;-84
2021/03/22 08:06:28;;;;;;;11.88;4.55;;;5.80;99.90;;;;;;5083362;28;20262;-83
2021/03/22 08:09:11;;;;;;;7.18;3.00;;;5.80;99.90;;;;;;5094821;28;20306;-82
2021/03/22 08:11:44;;;;;;;18.52;3.85;;;6.10;99.90;;;;;;5091270;28;20202;-82
2021/03/22 08:14:17;;;;;;;10.15;3.42;;;6.20;99.90;;;;;;5079468;28;20607;-83
2021/03/22 08:17:15;;;;;;;24.40;6.35;;;6.00;99.90;;;;;;5078420;28;20261;-83
2021/03/22 08:19:47;;;;;;;11.25;3.40;;;6.00;99.90;;;;;;5077628;28;20250;-83
2021/03/22 08:22:21;;;;;;;22.17;3.80;;;6.20;99.90;;;;;;5070241;28;20201;-83
2021/03/22 08:25:11;;;;;;;7.47;2.38;;;6.10;99.90;;;;;;5078980;28;20220;-80
2021/03/22 08:27:42;;;;;;;8.10;3.40;;;6.40;99.90;;;;;;5079490;28;20522;-83
2021/03/22 08:30:28;;;;;;;15.68;3.25;;;6.50;99.90;;;;;;5078252;28;20230;-83
2021/03/22 08:33:03;;;;;;;13.43;2.80;;;6.10;99.90;;;;;;5076861;28;20205;-84
2021/03/22 08:35:36;;;;;;;10.35;2.95;;;6.30;99.90;;;;;;5082218;28;20615;-82
2021/03/22 08:38:05;;;;;;;12.07;3.25;;;6.30;99.90;;;;;;5058800;28;20286;-81
2021/03/22 08:40:43;;;;;;;11.05;2.85;;;6.20;99.90;;;;;;5059420;28;20203;-83
2021/03/22 08:43:23;;;;;;;11.20;3.10;;;6.30;99.90;;;;;;5076991;28;20241;-83
2021/03/22 08:46:00;;;;;;;11.23;2.80;;;6.60;99.90;;;;;;5077273;28;20213;-83
2021/03/22 08:48:29;;;;;;;9.30;3.20;;;6.50;99.90;;;;;;5063361;28;20254;-83
2021/03/22 08:50:57;;;;;;;14.88;3.72;;;6.40;99.90;;;;;;5058321;28;20206;-84
2021/03/22 08:53:26;;;;;;;22.27;3.90;;;6.60;99.90;;;;;;5077409;28;20328;-83
2021/03/22 08:55:59;;;;;;;17.60;4.40;;;6.90;99.90;;;;;;5077830;28;20280;-83
2021/03/22 08:58:29;;;;;;;10.95;2.90;;;6.70;99.90;;;;;;5075476;28;20233;-82
2021/03/22 09:01:17;;;;;;;7.97;2.92;;;7.00;99.90;;;;;;5076662;28;20233;-82
2021/03/22 09:03:48;;;;;;;10.23;3.80;;;6.70;99.90;;;;;;5076877;28;20250;-83
2021/03/22 09:06:17;;;;;;;19.52;4.15;;;6.60;99.90;;;;;;5078009;28;20206;-83
2021/03/22 09:09:07;;;;;;;15.35;4.28;;;6.70;99.90;;;;;;5080517;28;20230;-84
2021/03/22 09:11:43;;;;;;;11.68;3.08;;;6.60;99.90;;;;;;5077780;28;20218;-82
2021/03/22 09:14:31;;;;;;;9.70;2.78;;;6.60;99.90;;;;;;5077330;28;20295;-82
2021/03/22 09:16:58;;;;;;;10.50;3.50;;;6.70;99.90;;;;;;5078412;28;20190;-82
2021/03/22 09:19:38;;;;;;;7.55;2.00;;;6.50;99.90;;;;;;5078037;28;20693;-83
2021/03/22 09:22:46;;;;;;;13.25;3.45;;;6.60;99.90;;;;;;5076874;28;20245;-82
2021/03/22 09:25:29;;;;;;;12.80;3.15;;;6.40;99.90;;;;;;5077339;28;20259;-82
2021/03/22 09:28:20;;;;;;;5.40;2.40;;;6.30;99.90;;;;;;5077353;28;20233;-81
2021/03/22 09:30:55;;;;;;;6.82;1.90;;;6.40;99.90;;;;;;5078103;28;20198;-83
2021/03/22 09:33:53;;;;;;;12.55;2.97;;;6.30;99.90;;;;;;5077652;28;20221;-82
2021/03/22 09:36:36;;;;;;;10.65;3.17;;;6.10;99.90;;;;;;5077361;28;20640;-84
2021/03/22 09:39:07;;;;;;;7.05;2.50;;;6.50;99.90;;;;;;5076617;28;20240;-83
2021/03/22 09:42:00;;;;;;;15.57;3.63;;;6.60;99.90;;;;;;5080853;28;20217;-83
2021/03/22 09:44:29;;;;;;;7.03;2.50;;;6.60;99.90;;;;;;5078425;28;20594;-82
2021/03/22 09:47:06;;;;;;;11.32;2.78;;;6.80;99.90;;;;;;5075802;28;20237;-78
2021/03/22 09:50:11;;;;;;;14.77;2.25;;;6.90;99.90;;;;;;5083380;28;20831;-78
2021/03/22 09:52:40;;;;;;;8.77;3.20;;;6.40;99.90;;;;;;5075250;28;20201;-85
2021/03/22 09:55:41;;;;;;;9.82;3.38;;;6.40;99.90;;;;;;5077892;28;20228;-84
2021/03/22 09:58:25;;;;;;;17.17;3.55;;;6.70;99.90;;;;;;5078158;28;20230;-84
2021/03/22 10:00:56;;;;;;;8.30;2.78;;;6.90;99.90;;;;;;5078320;28;20750;-85
2021/03/22 10:04:04;;;;;;;11.55;2.03;;;7.10;99.90;;;;;;5078404;28;20285;-85
2021/03/22 10:06:54;;;;;;;12.65;3.22;;;7.10;99.90;;;;;;5078200;28;20269;-85
2021/03/22 10:09:26;;;;;;;8.55;2.80;;;7.20;99.90;;;;;;5081165;28;20222;-83
2021/03/22 10:11:55;;;;;;;8.52;2.60;;;7.30;99.90;;;;;;5082201;28;20194;-82
2021/03/22 10:14:30;;;;;;;7.07;2.30;;;7.20;99.90;;;;;;5077323;28;20281;-84
2021/03/22 10:16:58;;;;;;;6.13;2.80;;;7.00;99.90;;;;;;5077465;28;20656;-85
2021/03/22 10:19:28;;;;;;;7.95;2.85;;;7.00;99.90;;;;;;5077562;28;20217;-85
2021/03/22 10:21:57;;;;;;;13.95;3.92;;;7.10;99.90;;;;;;5076088;28;20212;-82
2021/03/22 10:24:34;;;;;;;7.78;1.80;;;7.20;99.90;;;;;;5076467;28;20228;-82
2021/03/22 10:27:01;;;;;;;11.80;3.05;;;7.10;99.90;;;;;;5075774;28;20225;-83
2021/03/22 10:29:32;;;;;;;11.75;4.05;;;7.20;99.90;;;;;;5078047;28;20233;-83
2021/03/22 10:32:06;;;;;;;8.48;2.40;;;7.20;99.90;;;;;;5078568;28;20609;-83
2021/03/22 10:34:40;;;;;;;11.50;3.30;;;7.20;99.90;;;;;;5080377;28;20233;-82
2021/03/22 10:37:11;;;;;;;8.65;2.90;;;7.20;99.90;;;;;;5088547;28;20261;-82
2021/03/22 10:39:45;;;;;;;6.63;3.25;;;7.40;99.90;;;;;;5086032;28;20226;-83
2021/03/22 10:42:36;;;;;;;10.00;3.17;;;6.90;99.90;;;;;;5080425;28;20206;-84
2021/03/22 10:45:17;;;;;;;7.50;2.88;;;6.80;99.90;;;;;;5065038;28;20672;-83
2021/03/22 10:47:43;;;;;;;8.30;3.03;;;6.70;99.90;;;;;;5063096;28;20290;-82
2021/03/22 10:50:20;;;;;;;10.75;3.25;;;7.00;99.90;;;;;;5068108;28;20234;-83
2021/03/22 10:53:00;;;;;;;7.55;2.15;;;7.10;99.90;;;;;;5071697;28;20209;-83
2021/03/22 10:55:29;;;;;;;7.80;2.78;;;7.00;99.90;;;;;;5079576;28;20304;-83
2021/03/22 10:57:57;;;;;;;8.30;3.25;;;6.80;99.90;;;;;;5083617;28;20258;-81
2021/03/22 11:00:30;;;;;;;9.48;3.33;;;6.70;99.90;;;;;;5089633;28;20273;-83
2021/03/22 11:02:58;;;;;;;9.13;3.22;;;6.80;99.90;;;;;;5096004;28;20190;-83
2021/03/22 11:05:31;;;;;;;9.27;3.03;;;7.00;99.90;;;;;;5087897;28;20212;-83
2021/03/22 11:08:01;;;;;;;6.95;2.63;;;6.80;99.90;;;;;;5082485;28;20229;-83
2021/03/22 11:10:28;;;;;;;11.65;2.95;;;7.00;99.90;;;;;;5084256;28;20598;-83
2021/03/22 11:12:55;;;;;;;14.02;3.17;;;7.00;99.90;;;;;;5083358;28;20202;-77
2021/03/22 11:15:25;;;;;;;7.50;2.58;;;7.10;99.90;;;;;;5076995;28;20245;-79
2021/03/22 11:17:53;;;;;;;9.65;2.58;;;7.00;99.90;;;;;;5090769;28;20279;-83
2021/03/22 11:20:21;;;;;;;9.02;2.83;;;7.30;99.90;;;;;;5090023;28;20300;-79
2021/03/22 11:22:50;;;;;;;10.63;2.85;;;7.40;99.90;;;;;;5083513;28;20182;-78
2021/03/22 11:25:35;;;;;;;7.35;2.60;;;7.30;99.90;;;;;;5078608;28;20213;-78
2021/03/22 11:28:05;;;;;;;11.70;3.10;;;7.30;99.90;;;;;;5074093;28;20288;-77
2021/03/22 11:30:35;;;;;;;5.65;2.55;;;7.10;99.90;;;;;;5076643;28;20658;-78
2021/03/22 11:33:10;;;;;;;9.48;2.55;;;7.30;99.90;;;;;;5071276;28;20764;-77
2021/03/22 11:35:37;;;;;;;9.18;2.40;;;7.40;99.90;;;;;;5073468;28;20284;-76
2021/03/22 11:38:04;;;;;;;8.95;3.17;;;7.30;99.90;;;;;;5073377;28;20662;-78
2021/03/22 11:40:32;;;;;;;4.60;2.05;;;7.30;99.90;;;;;;5073182;28;20230;-76
2021/03/22 11:43:02;;;;;;;17.63;4.18;;;7.20;99.90;;;;;;5073377;28;20233;-77
2021/03/22 11:45:31;;;;;;;17.70;3.70;;;7.40;99.90;;;;;;5072688;28;20201;-77
2021/03/22 11:47:58;;;;;;;10.00;2.80;;;7.30;99.90;;;;;;5072208;28;20688;-77
2021/03/22 11:50:32;;;;;;;9.32;3.45;;;7.50;99.90;;;;;;5072984;28;20293;-77
2021/03/22 11:53:08;;;;;;;7.28;2.90;;;7.40;99.90;;;;;;5076576;28;20752;-81
2021/03/22 11:55:41;;;;;;;7.90;2.65;;;7.60;99.90;;;;;;5079196;28;20255;-83
2021/03/22 11:58:33;;;;;;;10.18;2.53;;;7.80;99.90;;;;;;5078241;28;20249;-80
2021/03/22 12:01:21;;;;;;;6.38;2.78;;;7.60;99.90;;;;;;5080593;28;20229;-83
2021/03/22 12:03:48;;;;;;;10.75;3.35;;;7.80;99.90;;;;;;5078883;28;20273;-84
2021/03/22 12:06:16;;;;;;;7.63;3.00;;;8.20;99.90;;;;;;5076761;28;20213;-84
2021/03/22 12:08:45;;;;;;;8.98;3.67;;;8.30;99.90;;;;;;5077563;28;20229;-77
2021/03/22 12:11:15;;;;;;;11.00;3.33;;;8.30;99.90;;;;;;5076444;28;20241;-79
2021/03/22 12:13:43;;;;;;;11.20;3.43;;;8.50;99.90;;;;;;5078548;28;20265;-83
2021/03/22 12:16:15;;;;;;;11.20;3.10;;;8.20;99.20;;;;;;5081478;28;20543;-82
2021/03/22 12:18:43;;;;;;;11.95;2.80;;;8.60;99.60;;;;;;5077697;28;20252;-85
2021/03/22 12:21:12;;;;;;;11.80;4.40;;;8.70;99.60;;;;;;5079586;28;20272;-81
2021/03/22 12:23:39;;;;;;;9.23;3.15;;;8.50;99.50;;;;;;5082309;28;20210;-83
2021/03/22 12:26:06;;;;;;;10.45;3.13;;;8.20;99.70;;;;;;5079313;28;20285;-79
2021/03/22 12:28:32;;;;;;;10.85;3.90;;;8.20;99.40;;;;;;5077623;28;20242;-83
2021/03/22 12:31:02;;;;;;;10.80;2.95;;;7.80;99.90;;;;;;5078763;28;20329;-83
2021/03/22 12:33:30;;;;;;;9.57;3.17;;;7.80;99.90;;;;;;5078877;28;20245;-81
2021/03/22 12:35:58;;;;;;;9.73;3.05;;;7.80;99.90;;;;;;5078547;28;20205;-82
2021/03/22 12:38:24;;;;;;;13.70;3.63;;;8.20;99.90;;;;;;5078574;28;20496;-81
2021/03/22 12:40:51;;;;;;;8.77;2.92;;;8.30;99.90;;;;;;5077851;28;20230;-82
2021/03/22 12:43:23;;;;;;;9.25;2.83;;;7.70;99.90;;;;;;5077449;28;20204;-78
2021/03/22 12:45:51;;;;;;;8.80;2.85;;;8.00;99.90;;;;;;5077997;28;20263;-81
2021/03/22 12:48:18;;;;;;;7.40;2.72;;;7.70;99.90;;;;;;5077083;28;20251;-83
2021/03/22 12:50:48;;;;;;;9.02;2.88;;;7.60;99.90;;;;;;5077581;28;20209;-82
2021/03/22 12:53:15;;;;;;;9.43;2.88;;;7.80;99.90;;;;;;5077804;28;20206;-83
2021/03/22 12:55:41;;;;;;;12.75;4.47;;;7.70;99.90;;;;;;5077826;28;20580;-82
2021/03/22 12:58:21;;;;;;;5.30;2.20;;;7.70;99.90;;;;;;5078298;28;20230;-82
2021/03/22 13:00:50;;;;;;;6.88;2.63;;;7.40;99.90;;;;;;5078636;28;20201;-82
2021/03/22 13:03:19;;;;;;;11.40;3.45;;;7.30;99.90;;;;;;5077148;28;20251;-82
2021/03/22 13:05:46;;;;;;;12.18;3.05;;;7.20;99.90;;;;;;5076274;28;20226;-83
2021/03/22 13:08:12;;;;;;;8.68;2.08;;;7.30;99.90;;;;;;5076746;28;20312;-81
2021/03/22 13:10:39;;;;;;;9.15;3.20;;;7.60;99.90;;;;;;5077584;28;20244;-83
2021/03/22 13:13:09;;;;;;;4.93;1.98;;;7.30;99.90;;;;;;5076931;28;20307;-82
2021/03/22 13:15:37;;;;;;;6.05;1.73;;;7.10;99.90;;;;;;5079189;28;20233;-83